createdAt,value
2022-11-09T00:01:43.590Z,99729.81
2022-11-09T00:04:11.400Z,99720.03
2022-11-09T00:06:38.554Z,99724.00
2022-11-09T00:09:08.344Z,99732.50
2022-11-09T00:11:37.531Z,99731.66
2022-11-09T00:14:04.488Z,99726.47
2022-11-09T00:16:31.440Z,99716.19
2022-11-09T00:18:58.962Z,99709.19
2022-11-09T00:21:25.737Z,99718.06
2022-11-09T00:23:53.015Z,99719.16
2022-11-09T00:26:20.884Z,99702.16
2022-11-09T00:28:48.184Z,99714.25
2022-11-09T00:31:17.904Z,99723.91
2022-11-09T00:33:53.016Z,99722.09
2022-11-09T00:36:22.368Z,99709.63
2022-11-09T00:38:53.046Z,99711.53
2022-11-09T00:41:20.102Z,99704.25
2022-11-09T00:43:47.894Z,99706.47
2022-11-09T00:46:18.341Z,99708.91
2022-11-09T00:48:45.832Z,99702.03
2022-11-09T00:51:13.349Z,99695.19
2022-11-09T00:53:42.540Z,99690.41
2022-11-09T00:56:13.262Z,99692.47
2022-11-09T00:58:43.749Z,99687.75
2022-11-09T01:01:14.119Z,99692.94
2022-11-09T01:03:43.195Z,99680.50
2022-11-09T01:06:15.192Z,99675.94
2022-11-09T01:08:43.260Z,99673.63
2022-11-09T01:11:10.601Z,99672.59
2022-11-09T01:13:37.976Z,99688.50
2022-11-09T01:16:10.289Z,99696.22
2022-11-09T01:18:38.564Z,99690.03
2022-11-09T01:21:08.402Z,99692.63
2022-11-09T01:23:35.192Z,99684.91
2022-11-09T01:26:04.872Z,99685.91
2022-11-09T01:28:32.288Z,99688.34
2022-11-09T01:31:04.765Z,99695.13
2022-11-09T01:33:32.336Z,99691.72
2022-11-09T01:36:23.131Z,99694.31
2022-11-09T01:38:50.451Z,99692.72
2022-11-09T01:41:21.922Z,99701.56
2022-11-09T01:44:10.825Z,99687.03
2022-11-09T01:46:57.031Z,99688.56
2022-11-09T01:49:50.010Z,99684.53
2022-11-09T01:52:22.973Z,99683.09
2022-11-09T01:54:53.848Z,99683.69
2022-11-09T01:57:30.196Z,99681.84
2022-11-09T02:00:03.545Z,99677.66
2022-11-09T02:02:46.064Z,99678.72
2022-11-09T02:05:18.223Z,99674.53
2022-11-09T02:07:48.625Z,99673.97
2022-11-09T02:10:27.837Z,99676.84
2022-11-09T02:12:58.166Z,99679.53
2022-11-09T02:15:25.696Z,99684.53
2022-11-09T02:17:54.446Z,99683.09
2022-11-09T02:20:22.229Z,99680.81
2022-11-09T02:22:48.930Z,99681.63
2022-11-09T02:25:16.434Z,99679.75
2022-11-09T02:27:44.424Z,99679.78
2022-11-09T02:30:12.633Z,99681.81
2022-11-09T02:32:39.440Z,99671.88
2022-11-09T02:35:07.115Z,99674.75
2022-11-09T02:37:45.296Z,99673.34
2022-11-09T02:40:19.297Z,99669.78
2022-11-09T02:42:46.049Z,99668.31
2022-11-09T02:45:12.609Z,99665.22
2022-11-09T02:47:41.196Z,99666.22
2022-11-09T02:50:08.152Z,99667.72
2022-11-09T02:52:34.691Z,99663.16
2022-11-09T02:55:02.016Z,99659.63
2022-11-09T02:57:28.590Z,99656.47
2022-11-09T02:59:55.829Z,99657.34
2022-11-09T03:02:22.533Z,99654.22
2022-11-09T03:04:50.581Z,99661.88
2022-11-09T03:07:17.636Z,99655.06
2022-11-09T03:09:45.977Z,99654.59
2022-11-09T03:12:30.812Z,99662.50
2022-11-09T03:15:07.721Z,99668.06
2022-11-09T03:17:35.788Z,99673.88
2022-11-09T03:20:02.977Z,99671.72
2022-11-09T03:22:29.832Z,99681.13
2022-11-09T03:24:56.538Z,99677.03
2022-11-09T03:27:23.966Z,99672.44
2022-11-09T03:29:50.550Z,99676.34
2022-11-09T03:32:17.155Z,99677.16
2022-11-09T03:34:44.241Z,99672.38
2022-11-09T03:37:12.924Z,99673.31
2022-11-09T03:39:40.952Z,99681.41
2022-11-09T03:42:07.489Z,99679.97
2022-11-09T03:44:36.538Z,99680.78
2022-11-09T03:47:03.111Z,99674.75
2022-11-09T03:49:29.713Z,99666.66
2022-11-09T03:51:56.791Z,99679.34
2022-11-09T03:54:23.361Z,99682.03
2022-11-09T03:56:49.996Z,99670.22
2022-11-09T03:59:16.517Z,99684.75
2022-11-09T04:01:43.550Z,99679.53
2022-11-09T04:04:10.119Z,99672.16
2022-11-09T04:06:36.744Z,99667.69
2022-11-09T04:09:03.900Z,99672.25
2022-11-09T04:11:30.932Z,99657.34
2022-11-09T04:13:57.512Z,99659.84
2022-11-09T04:16:24.102Z,99664.81
2022-11-09T04:18:50.688Z,99657.75
2022-11-09T04:21:22.766Z,99661.06
2022-11-09T04:23:50.439Z,99656.88
2022-11-09T04:26:17.125Z,99656.72
2022-11-09T04:28:43.954Z,99659.84
2022-11-09T04:31:10.561Z,99663.56
2022-11-09T04:33:37.154Z,99659.75
2022-11-09T04:36:04.989Z,99661.09
2022-11-09T04:38:32.267Z,99669.59
2022-11-09T04:41:03.288Z,99673.53
2022-11-09T04:43:29.974Z,99668.88
2022-11-09T04:45:59.974Z,99663.91
2022-11-09T04:48:26.915Z,99678.81
2022-11-09T04:51:06.479Z,99685.66
2022-11-09T04:53:34.236Z,99689.91
2022-11-09T04:56:01.480Z,99679.47
2022-11-09T04:58:28.081Z,99672.91
2022-11-09T05:00:55.264Z,99678.50
2022-11-09T05:03:22.439Z,99679.97
2022-11-09T05:05:49.667Z,99674.78
2022-11-09T05:08:16.248Z,99674.34
2022-11-09T05:10:42.849Z,99686.78
2022-11-09T05:13:11.960Z,99689.94
2022-11-09T05:15:38.938Z,99684.53
2022-11-09T05:18:06.391Z,99682.25
2022-11-09T05:20:34.014Z,99679.75
2022-11-09T05:23:19.531Z,99674.38
2022-11-09T05:25:47.262Z,99668.94
2022-11-09T05:28:14.488Z,99674.16
2022-11-09T05:30:41.491Z,99678.53
2022-11-09T05:33:08.396Z,99681.03
2022-11-09T05:35:34.998Z,99684.34
2022-11-09T05:38:01.724Z,99676.84
2022-11-09T05:40:28.669Z,99679.34
2022-11-09T05:42:56.540Z,99680.75
2022-11-09T05:45:42.039Z,99682.66
2022-11-09T05:48:09.260Z,99691.59
2022-11-09T05:50:35.875Z,99687.56
2022-11-09T05:53:12.785Z,99687.63
2022-11-09T05:55:39.831Z,99691.78
2022-11-09T05:58:06.720Z,99689.31
2022-11-09T06:00:33.982Z,99690.53
2022-11-09T06:03:11.501Z,99676.78
2022-11-09T06:05:39.700Z,99689.72
2022-11-09T06:08:12.955Z,99687.63
2022-11-09T06:10:40.070Z,99688.06
2022-11-09T06:13:07.307Z,99686.16
2022-11-09T06:15:34.338Z,99687.22
2022-11-09T06:18:01.341Z,99685.78
2022-11-09T06:20:28.620Z,99693.44
2022-11-09T06:23:03.573Z,99695.34
2022-11-09T06:25:32.300Z,99700.13
2022-11-09T06:27:59.871Z,99700.13
2022-11-09T06:30:26.468Z,99697.41
2022-11-09T06:32:59.056Z,99708.44
2022-11-09T06:35:25.733Z,99710.69
2022-11-09T06:37:59.576Z,99709.69
2022-11-09T06:40:26.826Z,99722.53
2022-11-09T06:42:56.904Z,99726.88
2022-11-09T06:45:23.677Z,99734.78
2022-11-09T06:47:50.331Z,99727.94
2022-11-09T06:50:17.431Z,99735.44
2022-11-09T06:52:44.426Z,99725.44
2022-11-09T06:55:10.967Z,99730.22
2022-11-09T06:57:37.853Z,99733.78
2022-11-09T07:00:05.896Z,99736.50
2022-11-09T07:02:33.348Z,99743.72
2022-11-09T07:04:59.894Z,99748.69
2022-11-09T07:07:28.396Z,99742.50
2022-11-09T07:09:55.786Z,99750.78
2022-11-09T07:12:22.455Z,99755.09
2022-11-09T07:14:49.098Z,99757.78
2022-11-09T07:17:16.484Z,99763.34
2022-11-09T07:19:43.277Z,99769.75
2022-11-09T07:22:09.849Z,99767.28
2022-11-09T07:24:36.389Z,99774.53
2022-11-09T07:27:02.979Z,99770.59
2022-11-09T07:29:29.593Z,99767.00
2022-11-09T07:31:56.541Z,99763.59
2022-11-09T07:34:23.069Z,99774.56
2022-11-09T07:36:49.584Z,99770.66
2022-11-09T07:39:16.173Z,99760.94
2022-11-09T07:41:42.702Z,99758.22
2022-11-09T07:44:09.762Z,99761.50
2022-11-09T07:46:36.328Z,99765.09
2022-11-09T07:49:02.847Z,99763.44
2022-11-09T07:51:29.456Z,99763.59
2022-11-09T07:53:55.996Z,99760.47
2022-11-09T07:56:23.312Z,99763.66
2022-11-09T07:58:50.374Z,99775.28
2022-11-09T08:01:16.919Z,99771.59
2022-11-09T08:03:43.422Z,99771.13
2022-11-09T08:06:14.256Z,99777.16
2022-11-09T08:08:43.760Z,99777.16
2022-11-09T08:11:10.405Z,99790.28
2022-11-09T08:13:37.141Z,99783.56
2022-11-09T08:16:04.604Z,99781.06
2022-11-09T08:18:31.201Z,99786.44
2022-11-09T08:21:02.580Z,99794.75
2022-11-09T08:23:29.426Z,99790.06
2022-11-09T08:25:56.313Z,99791.34
2022-11-09T08:28:23.491Z,99792.13
2022-11-09T08:30:58.673Z,99792.09
2022-11-09T08:33:27.755Z,99795.94
2022-11-09T08:35:55.170Z,99798.41
2022-11-09T08:38:22.908Z,99795.19
2022-11-09T08:40:49.626Z,99799.22
2022-11-09T08:43:16.161Z,99812.19
2022-11-09T08:45:42.979Z,99818.44
2022-11-09T08:48:11.244Z,99815.75
2022-11-09T08:50:37.890Z,99820.78
2022-11-09T08:53:05.556Z,99813.84
2022-11-09T08:55:32.465Z,99825.19
2022-11-09T08:58:01.369Z,99842.91
2022-11-09T09:00:28.175Z,99844.44
2022-11-09T09:02:54.823Z,99847.06
2022-11-09T09:05:21.757Z,99849.13
2022-11-09T09:07:48.463Z,99840.34
2022-11-09T09:10:15.013Z,99860.50
2022-11-09T09:12:42.457Z,99839.88
2022-11-09T09:15:09.292Z,99845.00
2022-11-09T09:17:36.088Z,99847.84
2022-11-09T09:20:03.045Z,99848.72
2022-11-09T09:22:30.246Z,99846.84
2022-11-09T09:24:57.192Z,99845.50
2022-11-09T09:27:24.799Z,99846.50
2022-11-09T09:29:51.376Z,99849.59
2022-11-09T09:32:18.022Z,99851.03
2022-11-09T09:34:44.844Z,99845.00
2022-11-09T09:37:11.467Z,99845.53
2022-11-09T09:39:38.831Z,99851.09
2022-11-09T09:42:09.208Z,99854.59
2022-11-09T09:44:45.212Z,99859.63
2022-11-09T09:47:33.121Z,99855.75
2022-11-09T09:50:04.139Z,99859.38
2022-11-09T09:53:23.202Z,99862.72
2022-11-09T09:55:57.100Z,99861.44
2022-11-09T09:58:29.672Z,99864.03
2022-11-09T10:01:10.804Z,99867.25
2022-11-09T10:03:37.738Z,99868.16
2022-11-09T10:06:26.559Z,99865.31
2022-11-09T10:09:36.441Z,99860.56
2022-11-09T10:12:15.657Z,99876.16
2022-11-09T10:15:15.839Z,99859.59
2022-11-09T10:18:15.640Z,99860.63
2022-11-09T10:21:02.116Z,99853.78
2022-11-09T10:23:47.020Z,99859.19
2022-11-09T10:26:19.118Z,99846.78
2022-11-09T10:31:41.068Z,99856.25
2022-11-09T10:34:20.560Z,99848.94
2022-11-09T10:36:57.773Z,99847.88
2022-11-09T10:39:27.577Z,99844.06
2022-11-09T10:42:13.131Z,99839.16
2022-11-09T10:45:07.446Z,99838.13
2022-11-09T10:47:52.929Z,99831.84
2022-11-09T10:50:52.303Z,99837.50
2022-11-09T10:53:37.560Z,99832.50
2022-11-09T10:56:22.884Z,99825.78
2022-11-09T10:59:37.781Z,99831.81
2022-11-09T11:02:26.171Z,99825.47
2022-11-09T11:05:17.569Z,99825.75
2022-11-09T11:08:21.672Z,99835.78
2022-11-09T11:11:33.923Z,99834.41
2022-11-09T11:14:33.753Z,99829.59
2022-11-09T11:17:25.318Z,99832.63
2022-11-09T11:20:27.924Z,99829.13
2022-11-09T11:23:23.139Z,99823.28
2022-11-09T11:26:32.060Z,99825.38
2022-11-09T11:29:24.406Z,99821.53
2022-11-09T11:32:16.541Z,99831.75
2022-11-09T11:35:13.175Z,99830.47
2022-11-09T11:38:19.779Z,99839.13
2022-11-09T11:41:24.108Z,99833.13
2022-11-09T11:44:27.534Z,99839.59
2022-11-09T11:47:21.829Z,99831.53
2022-11-09T11:50:32.830Z,99834.09
2022-11-09T11:53:40.754Z,99836.03
2022-11-09T11:56:39.228Z,99828.06
2022-11-09T11:59:49.893Z,99845.81
2022-11-09T12:03:08.528Z,99838.00
2022-11-09T12:06:00.320Z,99821.22
2022-11-09T12:08:45.824Z,99837.94
2022-11-09T12:11:43.631Z,99840.44
2022-11-09T12:14:55.950Z,99845.16
2022-11-09T12:17:52.241Z,99847.34
2022-11-09T12:20:48.849Z,99836.63
2022-11-09T12:23:43.785Z,99841.31
2022-11-09T12:26:55.761Z,99844.47
2022-11-09T12:30:09.462Z,99852.09
2022-11-09T12:33:15.818Z,99836.56
2022-11-09T12:36:11.923Z,99833.78
2022-11-09T12:39:07.541Z,99841.94
2022-11-09T12:41:58.580Z,99835.47
2022-11-09T12:44:59.611Z,99843.28
2022-11-09T12:47:45.735Z,99834.31
2022-11-09T12:50:32.194Z,99838.78
2022-11-09T12:53:18.477Z,99836.00
2022-11-09T12:56:10.063Z,99836.41
2022-11-09T12:59:34.735Z,99833.19
2022-11-09T13:02:37.343Z,99822.19
2022-11-09T13:05:31.898Z,99829.47
2022-11-09T13:08:29.981Z,99815.06
2022-11-09T13:11:18.102Z,99816.00
2022-11-09T13:14:38.735Z,99808.31
2022-11-09T13:17:24.201Z,99814.97
2022-11-09T13:20:53.867Z,99825.75
2022-11-09T13:24:00.023Z,99827.28
2022-11-09T13:26:46.639Z,99829.19
2022-11-09T13:29:40.911Z,99831.06
2022-11-09T13:32:33.479Z,99836.34
2022-11-09T13:35:50.768Z,99832.75
2022-11-09T13:38:36.373Z,99839.00
2022-11-09T13:41:30.773Z,99846.63
2022-11-09T13:44:22.066Z,99837.50
2022-11-09T13:47:25.238Z,99837.13
2022-11-09T13:50:23.019Z,99835.84
2022-11-09T13:53:31.542Z,99846.84
2022-11-09T13:56:37.854Z,99847.69
2022-11-09T13:59:45.401Z,99847.53
2022-11-09T14:02:31.270Z,99854.00
2022-11-09T14:05:27.330Z,99860.31
2022-11-09T14:08:24.141Z,99862.34
2022-11-09T14:11:31.756Z,99866.00
2022-11-09T14:14:44.941Z,99869.88
2022-11-09T14:17:40.132Z,99869.94
2022-11-09T14:20:55.569Z,99874.53
2022-11-09T14:23:41.229Z,99871.47
2022-11-09T14:26:26.440Z,99878.19
2022-11-09T14:29:22.960Z,99881.72
2022-11-09T14:32:31.951Z,99885.28
2022-11-09T14:35:31.157Z,99876.63
2022-11-09T14:38:22.999Z,99880.91
2022-11-09T14:41:22.180Z,99874.09
2022-11-09T14:44:16.805Z,99888.16
2022-11-09T14:47:03.984Z,99883.19
2022-11-09T14:49:50.341Z,99883.59
2022-11-09T14:52:36.136Z,99875.31
2022-11-09T14:55:24.425Z,99883.13
2022-11-09T14:58:13.849Z,99888.50
2022-11-09T15:01:20.168Z,99886.53
2022-11-09T15:04:12.947Z,99881.72
2022-11-09T15:07:04.343Z,99881.03
2022-11-09T15:10:02.184Z,99888.25
2022-11-09T15:12:50.734Z,99891.44
2022-11-09T15:15:36.090Z,99892.34
2022-11-09T15:18:33.550Z,99884.66
2022-11-09T15:21:20.549Z,99883.63
2022-11-09T15:24:16.013Z,99897.53
2022-11-09T15:27:01.769Z,99894.09
2022-11-09T15:29:49.047Z,99893.75
2022-11-09T15:32:38.427Z,99891.47
2022-11-09T15:35:24.974Z,99893.66
2022-11-09T15:38:41.290Z,99889.41
2022-11-09T15:41:27.551Z,99901.69
2022-11-09T15:44:14.146Z,99905.84
2022-11-09T15:46:59.775Z,99899.63
2022-11-09T15:49:45.219Z,99915.00
2022-11-09T15:52:30.554Z,99911.13
2022-11-09T15:55:21.847Z,99927.50
2022-11-09T15:58:07.133Z,99923.28
2022-11-09T16:00:52.485Z,99926.41
2022-11-09T16:03:37.639Z,99926.22
2022-11-09T16:06:23.850Z,99929.44
2022-11-09T16:09:09.243Z,99927.63
2022-11-09T16:11:55.191Z,99930.44
2022-11-09T16:14:41.279Z,99933.84
2022-11-09T16:17:26.659Z,99935.16
2022-11-09T16:20:12.375Z,99940.16
2022-11-09T16:22:58.346Z,99946.25
2022-11-09T16:25:44.725Z,99944.56
2022-11-09T16:28:29.661Z,99945.19
2022-11-09T16:31:14.926Z,99940.16
2022-11-09T16:34:00.013Z,99942.72
2022-11-09T16:36:50.816Z,99945.00
2022-11-09T16:39:39.184Z,99945.31
2022-11-09T16:42:26.036Z,99948.19
2022-11-09T16:45:16.206Z,99951.31
2022-11-09T16:48:04.360Z,99952.75
2022-11-09T16:50:53.316Z,99955.59
2022-11-09T16:53:40.567Z,99958.16
2022-11-09T16:56:26.203Z,99959.38
2022-11-09T16:59:11.571Z,99963.03
2022-11-09T17:01:59.157Z,99968.41
2022-11-09T17:04:44.249Z,99967.38
2022-11-09T17:07:29.718Z,99976.22
2022-11-09T17:10:15.170Z,99971.84
2022-11-09T17:13:00.859Z,99973.50
2022-11-09T17:15:48.304Z,99976.19
2022-11-09T17:18:34.515Z,99975.03
2022-11-09T17:21:20.502Z,99982.72
2022-11-09T17:24:06.319Z,99999.38
2022-11-09T17:26:52.339Z,99999.63
2022-11-09T17:29:37.805Z,100006.09
2022-11-09T17:32:27.314Z,100005.16
2022-11-09T17:35:12.720Z,100015.53
2022-11-09T17:37:58.049Z,100017.94
2022-11-09T17:40:43.470Z,100022.03
2022-11-09T17:43:31.012Z,100021.03
2022-11-09T17:46:20.212Z,100023.19
2022-11-09T17:49:09.788Z,100031.22
2022-11-09T17:51:55.813Z,100028.13
2022-11-09T17:54:41.097Z,100037.50
2022-11-09T17:57:26.407Z,100043.47
2022-11-09T18:00:12.740Z,100040.59
2022-11-09T18:02:58.293Z,100049.28
2022-11-09T18:05:44.435Z,100050.06
2022-11-09T18:08:30.558Z,100044.69
2022-11-09T18:11:18.354Z,100053.13
2022-11-09T18:14:07.430Z,100045.31
2022-11-09T18:16:52.699Z,100044.69
2022-11-09T18:19:38.132Z,100049.69
2022-11-09T18:22:23.912Z,100046.38
2022-11-09T18:25:09.481Z,100051.69
2022-11-09T18:27:54.693Z,100054.25
2022-11-09T18:30:41.663Z,100052.25
2022-11-09T18:33:27.444Z,100063.50
2022-11-09T18:36:21.402Z,100050.47
2022-11-09T18:39:06.563Z,100065.59
2022-11-09T18:41:54.655Z,100062.84
2022-11-09T18:44:40.686Z,100075.53
2022-11-09T18:47:25.868Z,100073.13
2022-11-09T18:50:11.376Z,100078.13
2022-11-09T18:52:56.580Z,100082.75
2022-11-09T18:55:42.092Z,100087.06
2022-11-09T18:58:27.773Z,100096.38
2022-11-09T19:01:13.742Z,100098.53
2022-11-09T19:04:01.803Z,100092.69
2022-11-09T19:06:47.871Z,100096.38
2022-11-09T19:09:38.390Z,100104.75
2022-11-09T19:12:24.221Z,100100.84
2022-11-09T19:15:10.284Z,100104.41
2022-11-09T19:17:55.424Z,100110.88
2022-11-09T19:20:40.761Z,100112.06
2022-11-09T19:23:32.805Z,100116.72
2022-11-09T19:26:23.045Z,100128.34
2022-11-09T19:29:09.747Z,100122.31
2022-11-09T19:31:55.657Z,100124.06
2022-11-09T19:34:42.993Z,100131.41
2022-11-09T19:37:28.446Z,100116.84
2022-11-09T19:40:13.553Z,100126.78
2022-11-09T19:42:59.029Z,100136.06
2022-11-09T19:45:44.618Z,100142.38
2022-11-09T19:48:31.973Z,100151.50
2022-11-09T19:51:18.682Z,100145.81
2022-11-09T19:54:05.864Z,100149.50
2022-11-09T19:56:51.408Z,100152.13
2022-11-09T19:59:36.717Z,100167.75
2022-11-09T20:02:23.825Z,100162.78
2022-11-09T20:05:09.465Z,100173.59
2022-11-09T20:07:54.614Z,100178.25
2022-11-09T20:10:39.769Z,100179.41
2022-11-09T20:13:27.065Z,100186.75
2022-11-09T20:16:12.298Z,100192.78
2022-11-09T20:21:44.788Z,100212.13
2022-11-09T20:24:30.176Z,100211.00
2022-11-09T20:27:15.733Z,100216.41
2022-11-09T20:30:00.998Z,100222.38
2022-11-09T20:32:46.101Z,100214.44
2022-11-09T20:35:31.352Z,100230.50
2022-11-09T20:38:16.580Z,100232.66
2022-11-09T20:41:04.670Z,100237.56
2022-11-09T20:43:50.074Z,100244.38
2022-11-09T20:46:36.686Z,100249.22
2022-11-09T20:49:22.972Z,100253.22
2022-11-09T20:52:07.956Z,100249.75
2022-11-09T20:54:53.404Z,100257.91
2022-11-09T20:57:38.502Z,100270.78
2022-11-09T21:00:24.653Z,100271.78
2022-11-09T21:03:10.333Z,100257.13
2022-11-09T21:05:59.794Z,100272.13
2022-11-09T21:08:47.271Z,100274.56
2022-11-09T21:11:35.678Z,100274.34
2022-11-09T21:14:21.114Z,100295.19
2022-11-09T21:17:06.402Z,100289.75
2022-11-09T21:19:51.604Z,100290.66
2022-11-09T21:22:55.407Z,100295.53
2022-11-09T21:26:00.449Z,100287.97
2022-11-09T21:29:04.261Z,100300.03
2022-11-09T21:31:49.612Z,100305.00
2022-11-09T21:34:37.119Z,100306.25
2022-11-09T21:37:22.905Z,100317.59
2022-11-09T21:40:08.860Z,100318.69
2022-11-09T21:42:55.377Z,100316.38
2022-11-09T21:45:41.647Z,100330.81
2022-11-09T21:48:27.182Z,100325.44
2022-11-09T21:51:12.648Z,100324.66
2022-11-09T21:53:58.881Z,100325.34
2022-11-09T21:56:44.088Z,100337.84
2022-11-09T21:59:29.418Z,100348.66
2022-11-09T22:02:14.390Z,100338.75
2022-11-09T22:05:00.615Z,100357.16
2022-11-09T22:07:45.893Z,100352.34
2022-11-09T22:10:31.418Z,100362.97
2022-11-09T22:13:35.293Z,100352.50
2022-11-09T22:16:21.852Z,100358.59
2022-11-09T22:19:25.614Z,100365.44
2022-11-09T22:22:10.822Z,100364.66
2022-11-09T22:24:56.082Z,100372.41
2022-11-09T22:27:41.454Z,100373.59
2022-11-09T22:30:27.009Z,100374.41
2022-11-09T22:33:12.176Z,100369.75
2022-11-09T22:36:05.820Z,100378.09
2022-11-09T22:38:51.191Z,100381.94
2022-11-09T22:41:36.369Z,100378.75
2022-11-09T22:44:21.823Z,100391.56
2022-11-09T22:47:07.084Z,100384.56
2022-11-09T22:49:52.452Z,100398.63
2022-11-09T22:55:24.190Z,100389.66
2022-11-09T22:58:09.539Z,100394.84
2022-11-09T23:00:54.549Z,100401.56
2022-11-09T23:03:40.017Z,100402.50
2022-11-09T23:06:25.975Z,100404.47
2022-11-09T23:09:11.178Z,100414.97
2022-11-09T23:11:56.504Z,100424.06
2022-11-09T23:15:00.139Z,100427.34
2022-11-09T23:18:04.268Z,100429.50
2022-11-09T23:20:49.696Z,100440.31
2022-11-09T23:23:35.594Z,100441.94
2022-11-09T23:26:22.307Z,100445.38
2022-11-09T23:29:07.739Z,100447.25
2022-11-09T23:31:53.496Z,100454.50
2022-11-09T23:34:39.169Z,100459.38
2022-11-09T23:37:24.432Z,100464.59
2022-11-09T23:40:10.213Z,100461.81
2022-11-09T23:43:06.338Z,100466.03
2022-11-09T23:45:51.816Z,100472.84
2022-11-09T23:48:37.636Z,100472.72
2022-11-09T23:51:23.532Z,100478.13
2022-11-09T23:54:09.019Z,100482.03
2022-11-09T23:56:54.192Z,100490.00
2022-11-09T23:59:39.606Z,100486.53
